DEFLO OMFJ-OOKB
Flight info
| Callsign | DEFLO |
|---|---|
| Flight time | N/A |
| Altitude | 9000 |
| Route | SUTVO |
| Aircraft | B60T/L-SDFGRY/C |
Departure
| Time | N/A |
|---|---|
| Airport | Fujairah International Airport (OMFJ) |
Arrival
| Time | 2026-04-11 10:43 |
|---|---|
| Airport | Khasab Airport (OOKB) |
| Time | Latitude | Longitude | Altitude | Speed | Heading |
|---|---|---|---|---|---|
| 2026-04-11 10:34 | 25.87527 | 56.32314 | 9010 ft | 235 kts | 353° |
| 2026-04-11 10:34 | 25.89146 | 56.32205 | 9001 ft | 231 kts | 352° |
| 2026-04-11 10:34 | 25.90765 | 56.32100 | 8995 ft | 234 kts | 353° |
| 2026-04-11 10:35 | 25.92377 | 56.32003 | 8989 ft | 230 kts | 353° |
| 2026-04-11 10:35 | 25.93953 | 56.31902 | 8997 ft | 225 kts | 353° |
| 2026-04-11 10:35 | 25.95515 | 56.31803 | 8995 ft | 226 kts | 353° |
| 2026-04-11 10:35 | 25.97092 | 56.31698 | 8995 ft | 227 kts | 352° |
| 2026-04-11 10:36 | 25.98672 | 56.31602 | 8994 ft | 229 kts | 353° |
| 2026-04-11 10:36 | 26.00259 | 56.31508 | 8997 ft | 228 kts | 353° |
| 2026-04-11 10:36 | 26.01838 | 56.31414 | 8998 ft | 227 kts | 353° |
| 2026-04-11 10:36 | 26.03405 | 56.31311 | 8981 ft | 225 kts | 353° |
| 2026-04-11 10:37 | 26.04961 | 56.31191 | 8987 ft | 224 kts | 352° |
| 2026-04-11 10:37 | 26.06514 | 56.31088 | 8990 ft | 216 kts | 352° |
| 2026-04-11 10:37 | 26.07877 | 56.31021 | 8971 ft | 175 kts | 353° |
| 2026-04-11 10:37 | 26.09013 | 56.31007 | 8625 ft | 163 kts | 356° |
| 2026-04-11 10:38 | 26.10190 | 56.31136 | 8024 ft | 173 kts | 0° |
| 2026-04-11 10:38 | 26.11393 | 56.31235 | 7529 ft | 172 kts | 357° |
| 2026-04-11 10:38 | 26.13749 | 56.31283 | 6743 ft | 173 kts | 353° |
| 2026-04-11 10:39 | 26.14943 | 56.31183 | 6536 ft | 171 kts | 349° |
| 2026-04-11 10:39 | 26.16132 | 56.31087 | 6137 ft | 174 kts | 351° |
| 2026-04-11 10:39 | 26.17352 | 56.30946 | 5443 ft | 175 kts | 347° |
| 2026-04-11 10:39 | 26.18535 | 56.30707 | 4818 ft | 168 kts | 344° |
| 2026-04-11 10:40 | 26.19663 | 56.30398 | 4174 ft | 166 kts | 341° |
| 2026-04-11 10:40 | 26.20776 | 56.30053 | 3451 ft | 166 kts | 334° |
| 2026-04-11 10:40 | 26.21642 | 56.29367 | 3048 ft | 136 kts | 304° |
| 2026-04-11 10:40 | 26.22084 | 56.28484 | 2621 ft | 132 kts | 288° |
| 2026-04-11 10:41 | 26.22446 | 56.27493 | 2259 ft | 143 kts | 287° |
| 2026-04-11 10:41 | 26.22759 | 56.26416 | 2031 ft | 144 kts | 278° |
| 2026-04-11 10:41 | 26.22439 | 56.25608 | 1946 ft | 106 kts | 212° |
| 2026-04-11 10:41 | 26.21786 | 56.25320 | 1452 ft | 104 kts | 198° |
| 2026-04-11 10:42 | 26.21047 | 56.25122 | 1111 ft | 112 kts | 194° |
| 2026-04-11 10:42 | 26.20295 | 56.24904 | 819 ft | 110 kts | 198° |
| 2026-04-11 10:42 | 26.19541 | 56.24699 | 515 ft | 116 kts | 195° |
| 2026-04-11 10:42 | 26.18746 | 56.24495 | 257 ft | 117 kts | 192° |
| 2026-04-11 10:43 | 26.17388 | 56.24127 | 54 ft | 61 kts | 194° |
| 2026-04-11 10:43 | 26.17290 | 56.24099 | 54 ft | 0 kts | 193° |
| 2026-04-11 10:44 | 26.17255 | 56.24090 | 54 ft | 7 kts | 194° |
| 2026-04-11 10:45 | 26.17180 | 56.24070 | 56 ft | 15 kts | 194° |
| 2026-04-11 10:45 | 26.17061 | 56.24038 | 55 ft | 20 kts | 194° |
| 2026-04-11 10:45 | 26.16921 | 56.24000 | 57 ft | 21 kts | 195° |
| 2026-04-11 10:45 | 26.16811 | 56.23957 | 60 ft | 14 kts | 227° |
| 2026-04-11 10:46 | 26.16799 | 56.23886 | 58 ft | 7 kts | 288° |
| 2026-04-11 10:46 | 26.16768 | 56.23843 | 56 ft | 12 kts | 193° |
| 2026-04-11 10:46 | 26.16677 | 56.23819 | 56 ft | 14 kts | 193° |
| 2026-04-11 10:46 | 26.16592 | 56.23791 | 57 ft | 12 kts | 223° |
| 2026-04-11 10:47 | 26.16601 | 56.23713 | 56 ft | 9 kts | 307° |
| 2026-04-11 10:47 | 26.16639 | 56.23717 | 56 ft | 4 kts | 18° |
| 2026-04-11 10:47 | 26.16669 | 56.23720 | 56 ft | 4 kts | 300° |
| 2026-04-11 10:47 | 26.16675 | 56.23691 | 56 ft | 0 kts | 285° |